RJFF(METAR)
08/13 02:00
METAR RJFF 121700Z AUTO 15010KT 9999 NSC 28/25 Q1007 NOSIG RMK
A2975=
戻る
トップページへ戻る
IMOC Co,.Ltd.